Pocomoke, Maryland
Current Conditions -  °F | °C
As of 5:54 PM on Thursday 18 Dec 2014 (Local Time) from KWAL Reporting Station
Clear Clear  
Wind Chill: 30°   Ceiling: Unl
Heat Index: 34°   Visibility: 10mi
Dew Point: 24°   Wind: 5mph
Humidity: 67%   Direction: 330°NNW
Pressure: 30.09"   Gusts: NA
Location:  38.0556°N, 75.5253°W
Report Text: KWAL 182254Z 33004KT 10SM CLR 01/M04 A3009 RMK AO2 SLP186 T00111044
Loading
Personal Weather Stations






























Interactive Weather Map New forecast layout! Learn more

10-Day Weather Forecast

Advertisements
Track Severe Weather on mobile